Pedro Luro, Argentina
Current Conditions -  °F | °C
As of 6:00 PM on Tuesday 21 Oct 2014 (Local Time) from SAZN Reporting Station
Clear Clear  
Wind Chill: 88°   Ceiling: Unl
Heat Index: 88°   Visibility: 6mi
Dew Point: 52°   Wind: 8mph
Humidity: 29%   Direction: 20°NNE
Pressure: 29.74"   Gusts: NA
Location:  39.48°S, 62.68°W
Report Text: SAZN 212100Z 02007KT CAVOK 31/11 Q1007
Loading
Personal Weather Stations






























Interactive Weather Map New forecast layout! Learn more

10-Day Weather Forecast

Advertisements
Track Severe Weather on mobile